createdAt,value
2022-09-28T00:02:13.336Z,97535.16
2022-09-28T00:04:40.254Z,97528.91
2022-09-28T00:07:07.132Z,97538.25
2022-09-28T00:09:33.948Z,97538.19
2022-09-28T00:12:01.159Z,97531.38
2022-09-28T00:14:28.330Z,97526.34
2022-09-28T00:16:55.318Z,97526.72
2022-09-28T00:19:22.292Z,97514.16
2022-09-28T00:21:49.237Z,97502.34
2022-09-28T00:24:16.127Z,97510.09
2022-09-28T00:26:50.504Z,97508.94
2022-09-28T00:29:32.966Z,97504.97
2022-09-28T00:32:02.612Z,97483.53
2022-09-28T00:34:33.809Z,97477.56
2022-09-28T00:37:01.123Z,97501.28
2022-09-28T00:39:28.138Z,97506.28
2022-09-28T00:41:55.112Z,97505.84
2022-09-28T00:44:39.159Z,97500.69
2022-09-28T00:47:26.770Z,97502.88
2022-09-28T00:50:05.465Z,97510.38
2022-09-28T00:52:36.497Z,97504.34
2022-09-28T00:55:05.553Z,97512.19
2022-09-28T00:57:32.436Z,97491.13
2022-09-28T00:59:59.675Z,97504.63
2022-09-28T01:02:26.637Z,97507.28
2022-09-28T01:04:53.611Z,97512.19
2022-09-28T01:07:20.513Z,97498.38
2022-09-28T01:09:47.672Z,97506.88
2022-09-28T01:12:14.590Z,97496.75
2022-09-28T01:14:41.508Z,97505.63
2022-09-28T01:17:15.687Z,97515.28
2022-09-28T01:20:18.131Z,97510.94
2022-09-28T01:22:55.143Z,97503.81
2022-09-28T01:25:28.238Z,97484.53
2022-09-28T01:28:15.076Z,97506.53
2022-09-28T01:31:00.347Z,97508.91
2022-09-28T01:33:30.104Z,97501.38
2022-09-28T01:36:04.484Z,97502.50
2022-09-28T01:38:34.223Z,97504.09
2022-09-28T01:41:01.094Z,97512.25
2022-09-28T01:43:28.651Z,97504.00
2022-09-28T01:46:18.795Z,97500.69
2022-09-28T01:48:59.924Z,97505.41
2022-09-28T01:51:52.182Z,97509.28
2022-09-28T01:54:26.954Z,97499.81
2022-09-28T01:57:05.989Z,97495.84
2022-09-28T01:59:33.813Z,97493.13
2022-09-28T02:02:07.221Z,97505.16
2022-09-28T02:04:37.215Z,97504.38
2022-09-28T02:07:09.740Z,97512.88
2022-09-28T02:09:46.153Z,97507.97
2022-09-28T02:12:16.434Z,97511.81
2022-09-28T02:14:44.736Z,97512.09
2022-09-28T02:17:11.601Z,97501.91
2022-09-28T02:19:38.468Z,97505.50
2022-09-28T02:22:05.186Z,97504.06
2022-09-28T02:24:46.474Z,97472.06
2022-09-28T02:27:41.506Z,97503.25
2022-09-28T02:30:09.025Z,97495.09
2022-09-28T02:32:40.273Z,97475.88
2022-09-28T02:35:10.989Z,97499.69
2022-09-28T02:37:38.794Z,97500.00
2022-09-28T02:40:24.554Z,97505.63
2022-09-28T02:43:23.778Z,97502.06
2022-09-28T02:46:02.233Z,97485.53
2022-09-28T02:49:17.503Z,97514.06
2022-09-28T02:52:04.708Z,97513.88
2022-09-28T02:54:49.929Z,97512.75
2022-09-28T02:57:19.749Z,97507.34
2022-09-28T03:00:15.033Z,97509.94
2022-09-28T03:03:00.616Z,97505.03
2022-09-28T03:05:53.984Z,97503.91
2022-09-28T03:08:31.185Z,97508.13
2022-09-28T03:11:04.309Z,97515.94
2022-09-28T03:13:32.198Z,97509.03
2022-09-28T03:16:12.802Z,97522.72
2022-09-28T03:18:41.343Z,97514.56
2022-09-28T03:21:08.224Z,97523.59
2022-09-28T03:23:35.276Z,97518.22
2022-09-28T03:26:02.789Z,97522.28
2022-09-28T03:28:30.380Z,97513.09
2022-09-28T03:30:58.063Z,97521.63
2022-09-28T03:33:25.146Z,97519.25
2022-09-28T03:35:53.399Z,97521.63
2022-09-28T03:38:20.589Z,97520.19
2022-09-28T03:40:58.110Z,97532.38
2022-09-28T03:43:25.406Z,97533.50
2022-09-28T03:45:55.503Z,97532.66
2022-09-28T03:48:31.361Z,97535.03
2022-09-28T03:51:00.808Z,97530.88
2022-09-28T03:53:29.588Z,97500.66
2022-09-28T03:55:56.746Z,97523.59
2022-09-28T03:58:23.702Z,97515.84
2022-09-28T04:00:51.321Z,97522.03
2022-09-28T04:03:18.419Z,97526.34
2022-09-28T04:05:50.019Z,97511.28
2022-09-28T04:08:17.248Z,97504.09
2022-09-28T04:10:45.662Z,97520.59
2022-09-28T04:13:12.701Z,97517.06
2022-09-28T04:15:40.832Z,97518.78
2022-09-28T04:18:11.528Z,97516.94
2022-09-28T04:21:10.837Z,97517.34
2022-09-28T04:23:44.706Z,97514.50
2022-09-28T04:26:18.822Z,97512.94
2022-09-28T04:29:06.765Z,97503.22
2022-09-28T04:31:42.086Z,97484.75
2022-09-28T04:34:10.032Z,97508.38
2022-09-28T04:36:37.190Z,97482.34
2022-09-28T04:39:04.272Z,97509.03
2022-09-28T04:41:32.415Z,97503.22
2022-09-28T04:43:59.403Z,97504.53
2022-09-28T04:46:26.450Z,97503.41
2022-09-28T04:49:22.601Z,97512.25
2022-09-28T04:51:53.108Z,97484.38
2022-09-28T04:54:20.014Z,97510.75
2022-09-28T04:56:46.831Z,97479.72
2022-09-28T04:59:13.786Z,97507.72
2022-09-28T05:01:42.505Z,97513.47
2022-09-28T05:04:28.326Z,97510.75
2022-09-28T05:07:10.096Z,97513.84
2022-09-28T05:09:38.661Z,97520.25
2022-09-28T05:12:05.829Z,97518.31
2022-09-28T05:14:32.687Z,97512.78
2022-09-28T05:17:00.036Z,97508.44
2022-09-28T05:19:27.013Z,97509.19
2022-09-28T05:22:00.528Z,97514.72
2022-09-28T05:24:27.597Z,97509.69
2022-09-28T05:26:54.463Z,97511.22
2022-09-28T05:29:21.460Z,97506.06
2022-09-28T05:32:06.828Z,97502.56
2022-09-28T05:34:52.526Z,97512.06
2022-09-28T05:37:24.959Z,97509.03
2022-09-28T05:39:51.852Z,97507.88
2022-09-28T05:42:18.722Z,97507.72
2022-09-28T05:44:45.618Z,97515.91
2022-09-28T05:47:12.792Z,97524.91
2022-09-28T05:49:39.745Z,97526.66
2022-09-28T05:52:06.573Z,97525.78
2022-09-28T05:54:37.387Z,97522.97
2022-09-28T05:57:05.301Z,97517.09
2022-09-28T05:59:32.115Z,97521.06
2022-09-28T06:02:00.236Z,97517.94
2022-09-28T06:04:27.296Z,97503.13
2022-09-28T06:06:54.221Z,97511.69
2022-09-28T06:09:25.927Z,97499.94
2022-09-28T06:11:59.548Z,97499.94
2022-09-28T06:14:55.312Z,97501.63
2022-09-28T06:17:23.664Z,97495.31
2022-09-28T06:20:11.662Z,97502.81
2022-09-28T06:23:09.192Z,97449.28
2022-09-28T06:25:36.187Z,97475.75
2022-09-28T06:28:08.943Z,97489.66
2022-09-28T06:30:38.148Z,97484.63
2022-09-28T06:33:08.454Z,97490.44
2022-09-28T06:35:36.641Z,97469.94
2022-09-28T06:38:03.767Z,97493.13
2022-09-28T06:40:31.703Z,97460.66
2022-09-28T06:43:03.266Z,97479.38
2022-09-28T06:45:52.728Z,97432.50
2022-09-28T06:48:38.103Z,97489.81
2022-09-28T06:51:07.168Z,97476.53
2022-09-28T06:53:41.619Z,97480.00
2022-09-28T06:56:22.182Z,97485.88
2022-09-28T06:58:49.371Z,97489.38
2022-09-28T07:01:16.311Z,97490.91
2022-09-28T07:03:55.839Z,97492.50
2022-09-28T07:06:47.780Z,97479.16
2022-09-28T07:09:35.037Z,97499.25
2022-09-28T07:12:42.084Z,97493.38
2022-09-28T07:15:31.891Z,97483.25
2022-09-28T07:18:03.081Z,97484.44
2022-09-28T07:20:31.740Z,97490.03
2022-09-28T07:23:11.545Z,97482.94
2022-09-28T07:26:07.786Z,97496.34
2022-09-28T07:29:13.178Z,97488.84
2022-09-28T07:31:55.042Z,97487.34
2022-09-28T07:34:46.264Z,97484.34
2022-09-28T07:37:27.508Z,97478.63
2022-09-28T07:40:13.440Z,97472.88
2022-09-28T07:42:40.340Z,97459.59
2022-09-28T07:45:07.863Z,97472.13
2022-09-28T07:47:35.402Z,97466.66
2022-09-28T07:50:21.318Z,97462.44
2022-09-28T07:53:08.487Z,97464.41
2022-09-28T07:55:53.143Z,97465.59
2022-09-28T07:58:39.146Z,97463.72
2022-09-28T08:01:32.255Z,97462.59
2022-09-28T08:04:00.038Z,97467.75
2022-09-28T08:06:26.908Z,97468.22
2022-09-28T08:08:56.313Z,97439.22
2022-09-28T08:11:29.472Z,97461.03
2022-09-28T08:14:22.423Z,97468.31
2022-09-28T08:17:01.280Z,97462.94
2022-09-28T08:20:04.798Z,97470.16
2022-09-28T08:22:32.368Z,97468.94
2022-09-28T08:25:00.434Z,97476.91
2022-09-28T08:27:27.763Z,97473.44
2022-09-28T08:29:54.902Z,97458.44
2022-09-28T08:32:44.979Z,97430.22
2022-09-28T08:35:31.586Z,97446.50
2022-09-28T08:38:13.625Z,97446.59
2022-09-28T08:41:07.540Z,97457.19
2022-09-28T08:43:59.732Z,97451.34
2022-09-28T08:46:38.889Z,97458.06
2022-09-28T08:49:37.093Z,97449.50
2022-09-28T08:52:36.527Z,97453.44
2022-09-28T08:55:17.209Z,97460.53
2022-09-28T08:58:05.428Z,97460.56
2022-09-28T09:00:47.622Z,97452.72
2022-09-28T09:03:20.300Z,97459.44
2022-09-28T09:06:30.092Z,97451.97
2022-09-28T09:09:01.073Z,97451.19
2022-09-28T09:11:49.339Z,97446.94
2022-09-28T09:14:51.672Z,97445.78
2022-09-28T09:17:42.990Z,97446.53
2022-09-28T09:20:54.921Z,97431.66
2022-09-28T09:23:46.577Z,97434.44
2022-09-28T09:26:22.767Z,97432.47
2022-09-28T09:29:03.041Z,97436.34
2022-09-28T09:31:59.696Z,97435.56
2022-09-28T09:34:42.508Z,97428.09
2022-09-28T09:37:49.922Z,97420.28
2022-09-28T09:40:38.511Z,97429.69
2022-09-28T09:43:31.800Z,97422.63
2022-09-28T09:46:30.017Z,97440.28
2022-09-28T09:49:25.124Z,97424.94
2022-09-28T09:52:15.178Z,97420.63
2022-09-28T09:55:01.817Z,97422.94
2022-09-28T09:57:41.254Z,97411.19
2022-09-28T10:00:25.031Z,97412.75
2022-09-28T10:03:04.734Z,97407.66
2022-09-28T10:05:38.711Z,97402.94
2022-09-28T10:08:08.628Z,97409.97
2022-09-28T10:10:38.131Z,97411.19
2022-09-28T10:13:11.004Z,97424.50
2022-09-28T10:15:38.992Z,97418.63
2022-09-28T10:18:16.625Z,97398.59
2022-09-28T10:21:03.590Z,97395.84
2022-09-28T10:24:49.834Z,97410.34
2022-09-28T10:27:19.549Z,97388.34
2022-09-28T10:29:50.143Z,97354.69
2022-09-28T10:32:41.289Z,97386.78
2022-09-28T10:35:22.776Z,97364.84
2022-09-28T10:38:17.077Z,97385.94
2022-09-28T10:40:47.713Z,97387.06
2022-09-28T10:43:38.562Z,97387.41
2022-09-28T10:46:12.793Z,97374.41
2022-09-28T10:49:00.694Z,97367.66
2022-09-28T10:51:43.657Z,97347.66
2022-09-28T10:54:17.760Z,97351.16
2022-09-28T10:56:46.909Z,97339.00
2022-09-28T10:59:29.334Z,97345.25
2022-09-28T11:02:26.535Z,97328.44
2022-09-28T11:05:01.261Z,97342.09
2022-09-28T11:07:33.496Z,97355.13
2022-09-28T11:10:01.087Z,97337.78
2022-09-28T11:12:37.140Z,97344.84
2022-09-28T11:15:06.296Z,97341.66
2022-09-28T11:17:34.284Z,97339.25
2022-09-28T11:20:26.062Z,97321.69
2022-09-28T11:22:59.202Z,97340.81
2022-09-28T11:25:31.401Z,97337.94
2022-09-28T11:28:00.999Z,97335.22
2022-09-28T11:30:29.726Z,97330.88
2022-09-28T11:33:20.749Z,97330.88
2022-09-28T11:36:32.268Z,97319.03
2022-09-28T11:39:11.448Z,97332.75
2022-09-28T11:42:24.044Z,97314.25
2022-09-28T11:44:54.074Z,97313.47
2022-09-28T11:47:49.982Z,97305.59
2022-09-28T11:50:36.179Z,97302.38
2022-09-28T11:53:13.803Z,97290.25
2022-09-28T11:56:08.869Z,97294.16
2022-09-28T11:58:53.605Z,97278.50
2022-09-28T12:01:26.672Z,97296.50
2022-09-28T12:04:33.976Z,97287.06
2022-09-28T12:07:09.181Z,97281.56
2022-09-28T12:09:39.088Z,97265.84
2022-09-28T12:12:32.603Z,97287.72
2022-09-28T12:15:59.236Z,97290.91
2022-09-28T12:18:40.124Z,97280.28
2022-09-28T12:21:09.719Z,97279.81
2022-09-28T12:23:37.367Z,97277.88
2022-09-28T12:26:05.774Z,97274.41
2022-09-28T12:28:39.609Z,97270.13
2022-09-28T12:31:14.875Z,97268.47
2022-09-28T12:33:42.704Z,97261.78
2022-09-28T12:36:28.549Z,97263.38
2022-09-28T12:39:27.124Z,97257.94
2022-09-28T12:42:21.190Z,97269.00
2022-09-28T12:45:10.102Z,97263.44
2022-09-28T12:47:43.082Z,97271.69
2022-09-28T12:53:14.972Z,97273.19
2022-09-28T12:56:01.835Z,97268.13
2022-09-28T12:59:05.413Z,97262.94
2022-09-28T13:01:39.602Z,97265.38
2022-09-28T13:04:12.781Z,97259.06
2022-09-28T13:06:59.067Z,97260.31
2022-09-28T13:09:26.807Z,97259.97
2022-09-28T13:12:13.104Z,97254.06
2022-09-28T13:15:01.199Z,97251.72
2022-09-28T13:17:39.156Z,97243.06
2022-09-28T13:20:39.354Z,97242.38
2022-09-28T13:23:15.406Z,97241.53
2022-09-28T13:26:11.508Z,97242.72
2022-09-28T13:28:38.372Z,97238.81
2022-09-28T13:31:05.199Z,97240.03
2022-09-28T13:33:40.260Z,97239.22
2022-09-28T13:36:25.966Z,97234.91
2022-09-28T13:38:53.078Z,97208.34
2022-09-28T13:41:40.531Z,97248.25
2022-09-28T13:44:13.464Z,97223.47
2022-09-28T13:46:58.748Z,97229.88
2022-09-28T13:49:41.001Z,97224.34
2022-09-28T13:52:47.992Z,97221.97
2022-09-28T13:55:33.275Z,97227.50
2022-09-28T13:58:21.487Z,97216.13
2022-09-28T14:00:51.340Z,97218.13
2022-09-28T14:03:24.330Z,97213.81
2022-09-28T14:06:00.834Z,97215.34
2022-09-28T14:08:34.755Z,97206.38
2022-09-28T14:11:34.280Z,97215.44
2022-09-28T14:14:14.178Z,97198.97
2022-09-28T14:16:41.637Z,97202.53
2022-09-28T14:19:21.611Z,97199.38
2022-09-28T14:22:07.164Z,97203.31
2022-09-28T14:24:37.828Z,97207.56
2022-09-28T14:27:18.993Z,97202.53
2022-09-28T14:29:45.906Z,97208.09
2022-09-28T14:32:12.673Z,97208.47
2022-09-28T14:34:54.740Z,97202.16
2022-09-28T14:37:43.393Z,97203.78
2022-09-28T14:40:36.164Z,97200.66
2022-09-28T14:43:34.781Z,97205.69
2022-09-28T14:46:23.219Z,97196.34
2022-09-28T14:48:52.694Z,97198.31
2022-09-28T14:51:31.364Z,97195.56
2022-09-28T14:54:04.570Z,97179.88
2022-09-28T14:56:40.390Z,97199.16
2022-09-28T14:59:07.566Z,97194.47
2022-09-28T15:01:34.415Z,97182.00
2022-09-28T15:04:04.841Z,97217.66
2022-09-28T15:06:48.522Z,97216.88
2022-09-28T15:09:44.463Z,97221.22
2022-09-28T15:12:13.161Z,97214.53
2022-09-28T15:14:56.461Z,97226.72
2022-09-28T15:17:39.280Z,97227.53
2022-09-28T15:20:30.085Z,97210.31
2022-09-28T15:22:58.454Z,97242.50
2022-09-28T15:25:30.110Z,97239.38
2022-09-28T15:28:03.500Z,97242.53
2022-09-28T15:30:32.009Z,97247.63
2022-09-28T15:33:18.523Z,97248.47
2022-09-28T15:35:55.755Z,97247.22
2022-09-28T15:38:22.630Z,97252.34
2022-09-28T15:40:49.493Z,97251.56
2022-09-28T15:43:29.067Z,97242.63
2022-09-28T15:46:11.232Z,97249.72
2022-09-28T15:48:52.172Z,97254.44
2022-09-28T15:51:20.035Z,97234.94
2022-09-28T15:53:58.933Z,97245.84
2022-09-28T15:56:26.274Z,97257.66
2022-09-28T15:59:13.185Z,97259.19
2022-09-28T16:01:41.026Z,97260.41
2022-09-28T16:04:38.778Z,97266.31
2022-09-28T16:07:23.979Z,97268.22
2022-09-28T16:10:01.036Z,97267.47
2022-09-28T16:12:36.597Z,97265.09
2022-09-28T16:15:07.141Z,97267.06
2022-09-28T16:17:35.013Z,97273.78
2022-09-28T16:20:03.845Z,97266.69
2022-09-28T16:22:32.555Z,97267.53
2022-09-28T16:25:00.051Z,97271.47
2022-09-28T16:27:29.773Z,97281.28
2022-09-28T16:30:16.995Z,97280.09
2022-09-28T16:32:52.595Z,97295.81
2022-09-28T16:35:19.417Z,97291.94
2022-09-28T16:37:58.059Z,97290.34
2022-09-28T16:40:25.045Z,97285.28
2022-09-28T16:42:51.908Z,97286.84
2022-09-28T16:45:20.388Z,97286.88
2022-09-28T16:47:47.977Z,97290.78
2022-09-28T16:50:15.176Z,97284.13
2022-09-28T16:53:00.827Z,97286.47
2022-09-28T16:55:40.053Z,97292.75
2022-09-28T16:58:08.209Z,97290.84
2022-09-28T17:00:35.078Z,97294.41
2022-09-28T17:03:02.278Z,97285.38
2022-09-28T17:05:29.545Z,97294.41
2022-09-28T17:08:03.420Z,97281.13
2022-09-28T17:10:50.049Z,97284.63
2022-09-28T17:13:33.148Z,97297.56
2022-09-28T17:16:01.638Z,97304.63
2022-09-28T17:18:31.810Z,97303.88
2022-09-28T17:21:01.564Z,97301.91
2022-09-28T17:23:28.511Z,97294.06
2022-09-28T17:25:55.673Z,97302.31
2022-09-28T17:28:26.081Z,97296.84
2022-09-28T17:30:53.130Z,97303.50
2022-09-28T17:33:20.246Z,97307.03
2022-09-28T17:35:47.303Z,97305.44
2022-09-28T17:38:15.155Z,97313.31
2022-09-28T17:40:43.201Z,97313.31
2022-09-28T17:43:10.145Z,97316.03
2022-09-28T17:45:41.064Z,97314.06
2022-09-28T17:48:12.555Z,97328.19
2022-09-28T17:50:43.187Z,97329.75
2022-09-28T17:53:12.882Z,97314.81
2022-09-28T17:55:39.945Z,97330.91
2022-09-28T17:58:17.818Z,97342.25
2022-09-28T18:00:45.585Z,97336.00
2022-09-28T18:03:16.988Z,97346.56
2022-09-28T18:05:44.177Z,97344.22
2022-09-28T18:08:17.131Z,97349.72
2022-09-28T18:10:44.019Z,97330.50
2022-09-28T18:13:10.995Z,97355.97
2022-09-28T18:15:38.303Z,97335.56
2022-09-28T18:18:05.270Z,97363.38
2022-09-28T18:20:32.142Z,97332.78
2022-09-28T18:22:58.995Z,97369.25
2022-09-28T18:25:25.782Z,97372.41
2022-09-28T18:27:57.284Z,97371.63
2022-09-28T18:30:24.640Z,97364.16
2022-09-28T18:32:51.520Z,97375.16
2022-09-28T18:35:22.755Z,97375.16
2022-09-28T18:37:50.372Z,97381.44
2022-09-28T18:40:17.308Z,97362.59
2022-09-28T18:42:44.233Z,97389.25
2022-09-28T18:45:11.344Z,97396.69
2022-09-28T18:47:39.055Z,97391.59
2022-09-28T18:50:06.420Z,97390.81
2022-09-28T18:52:36.371Z,97405.28
2022-09-28T18:55:03.399Z,97403.69
2022-09-28T18:57:33.561Z,97398.63
2022-09-28T19:00:01.295Z,97395.88
2022-09-28T19:02:28.262Z,97398.22
2022-09-28T19:04:55.234Z,97402.50
2022-09-28T19:07:22.121Z,97407.19
2022-09-28T19:09:48.972Z,97409.53
2022-09-28T19:12:16.056Z,97416.56
2022-09-28T19:14:42.907Z,97417.34
2022-09-28T19:17:10.251Z,97415.78
2022-09-28T19:19:37.103Z,97413.41
2022-09-28T19:22:04.349Z,97422.41
2022-09-28T19:24:31.273Z,97419.25
2022-09-28T19:26:58.137Z,97425.84
2022-09-28T19:29:25.032Z,97429.00
2022-09-28T19:31:51.953Z,97424.31
2022-09-28T19:34:19.021Z,97405.41
2022-09-28T19:36:45.966Z,97433.25
2022-09-28T19:39:14.222Z,97440.69
2022-09-28T19:41:43.344Z,97443.78
2022-09-28T19:44:31.283Z,97447.25
2022-09-28T19:47:10.077Z,97442.56
2022-09-28T19:49:39.275Z,97450.00
2022-09-28T19:52:16.790Z,97438.28
2022-09-28T19:54:45.509Z,97445.22
2022-09-28T19:57:13.110Z,97435.03
2022-09-28T19:59:40.007Z,97460.97
2022-09-28T20:02:07.231Z,97462.91
2022-09-28T20:04:34.172Z,97457.78
2022-09-28T20:07:01.884Z,97461.75
2022-09-28T20:09:28.932Z,97435.31
2022-09-28T20:11:55.893Z,97472.63
2022-09-28T20:14:24.590Z,97472.53
2022-09-28T20:16:55.213Z,97450.13
2022-09-28T20:19:23.266Z,97465.47
2022-09-28T20:21:50.448Z,97456.91
2022-09-28T20:24:17.545Z,97460.00
2022-09-28T20:26:45.940Z,97476.78
2022-09-28T20:29:12.974Z,97457.53
2022-09-28T20:31:40.071Z,97470.16
2022-09-28T20:34:07.104Z,97447.34
2022-09-28T20:36:34.191Z,97480.25
2022-09-28T20:39:04.114Z,97495.13
2022-09-28T20:41:35.702Z,97498.63
2022-09-28T20:44:05.636Z,97491.91
2022-09-28T20:46:36.480Z,97479.28
2022-09-28T20:49:04.115Z,97487.56
2022-09-28T20:51:31.110Z,97494.19
2022-09-28T20:53:58.231Z,97490.69
2022-09-28T20:56:30.580Z,97500.47
2022-09-28T20:58:57.538Z,97503.09
2022-09-28T21:01:25.824Z,97503.47
2022-09-28T21:04:02.828Z,97508.50
2022-09-28T21:06:31.146Z,97510.41
2022-09-28T21:08:58.166Z,97512.00
2022-09-28T21:11:25.971Z,97516.25
2022-09-28T21:13:56.648Z,97509.56
2022-09-28T21:16:23.475Z,97512.66
2022-09-28T21:18:50.306Z,97524.41
2022-09-28T21:21:18.310Z,97525.59
2022-09-28T21:23:45.192Z,97524.41
2022-09-28T21:26:17.672Z,97534.91
2022-09-28T21:28:46.017Z,97532.19
2022-09-28T21:31:12.981Z,97530.16
2022-09-28T21:33:39.913Z,97529.69
2022-09-28T21:36:07.586Z,97534.72
2022-09-28T21:38:34.716Z,97541.47
2022-09-28T21:41:01.653Z,97544.47
2022-09-28T21:43:29.077Z,97540.16
2022-09-28T21:45:56.119Z,97546.00
2022-09-28T21:48:23.509Z,97554.59
2022-09-28T21:51:03.716Z,97553.09
2022-09-28T21:53:35.081Z,97548.38
2022-09-28T21:56:02.261Z,97532.19
2022-09-28T21:58:30.588Z,97563.13
2022-09-28T22:01:07.084Z,97559.16
2022-09-28T22:03:35.569Z,97559.56
2022-09-28T22:06:03.496Z,97559.91
2022-09-28T22:08:30.371Z,97562.63
2022-09-28T22:11:07.383Z,97558.34
2022-09-28T22:13:47.890Z,97552.09
2022-09-28T22:16:15.824Z,97551.34
2022-09-28T22:18:42.818Z,97550.19
2022-09-28T22:21:35.778Z,97555.97
2022-09-28T22:24:03.813Z,97555.53
2022-09-28T22:26:31.871Z,97558.19
2022-09-28T22:29:00.281Z,97562.09
2022-09-28T22:31:31.606Z,97558.59
2022-09-28T22:33:58.758Z,97551.91
2022-09-28T22:36:25.982Z,97528.69
2022-09-28T22:38:53.765Z,97560.47
2022-09-28T22:41:20.962Z,97548.19
2022-09-28T22:43:48.760Z,97542.69
2022-09-28T22:46:17.212Z,97555.69
2022-09-28T22:48:52.669Z,97560.03
2022-09-28T22:51:19.727Z,97568.94
2022-09-28T22:53:46.545Z,97572.47
2022-09-28T22:56:18.367Z,97590.78
2022-09-28T22:58:45.715Z,97598.16
2022-09-28T23:01:13.498Z,97603.53
2022-09-28T23:03:40.541Z,97598.34
2022-09-28T23:06:07.620Z,97598.72
2022-09-28T23:08:34.618Z,97592.97
2022-09-28T23:11:01.576Z,97595.19
2022-09-28T23:13:28.875Z,97606.84
2022-09-28T23:16:02.959Z,97620.91
2022-09-28T23:18:31.696Z,97616.53
2022-09-28T23:21:00.171Z,97611.44
2022-09-28T23:23:27.103Z,97616.25
2022-09-28T23:25:54.053Z,97610.81
2022-09-28T23:28:21.735Z,97611.22
2022-09-28T23:30:48.803Z,97617.03
2022-09-28T23:33:16.657Z,97624.47
2022-09-28T23:35:44.028Z,97617.00
2022-09-28T23:38:14.573Z,97621.63
2022-09-28T23:40:41.614Z,97619.16
2022-09-28T23:43:08.616Z,97607.22
2022-09-28T23:45:35.492Z,97629.59
2022-09-28T23:48:02.543Z,97620.28
2022-09-28T23:50:29.402Z,97615.94
2022-09-28T23:52:56.310Z,97614.34
2022-09-28T23:55:23.308Z,97596.16
2022-09-28T23:57:50.501Z,97610.69
